createdAt,value
2019-04-14T00:00:33.728Z,13.90
2019-04-14T00:01:32.773Z,13.70
2019-04-14T00:02:33.746Z,13.10
2019-04-14T00:03:32.751Z,14.10
2019-04-14T00:04:33.337Z,14.20
2019-04-14T00:05:34.435Z,15.50
2019-04-14T00:06:32.950Z,15.20
2019-04-14T00:07:32.711Z,14.10
2019-04-14T00:08:32.756Z,14.10
2019-04-14T00:09:33.733Z,13.10
2019-04-14T00:10:33.343Z,13.60
2019-04-14T00:11:32.665Z,13.40
2019-04-14T00:12:33.699Z,13.30
2019-04-14T00:13:32.826Z,12.90
2019-04-14T00:14:33.642Z,15.00
2019-04-14T00:15:38.849Z,16.50
2019-04-14T00:16:33.611Z,15.20
2019-04-14T00:17:32.716Z,12.80
2019-04-14T00:18:33.669Z,13.70
2019-04-14T00:19:32.735Z,14.60
2019-04-14T00:20:33.601Z,12.40
2019-04-14T00:21:32.560Z,15.30
2019-04-14T00:22:33.631Z,14.40
2019-04-14T00:23:32.716Z,15.50
2019-04-14T00:24:33.567Z,13.50
2019-04-14T00:25:32.633Z,13.60
2019-04-14T00:26:33.533Z,15.70
2019-04-14T00:27:32.499Z,13.60
2019-04-14T00:28:33.584Z,14.40
2019-04-14T00:29:32.804Z,14.30
2019-04-14T00:30:33.540Z,15.20
2019-04-14T00:31:32.909Z,15.30
2019-04-14T00:32:33.414Z,13.50
2019-04-14T00:33:32.438Z,14.10
2019-04-14T00:34:33.128Z,16.40
2019-04-14T00:35:32.410Z,13.60
2019-04-14T00:36:32.669Z,15.40
2019-04-14T00:37:33.614Z,14.40
2019-04-14T00:38:32.391Z,14.10
2019-04-14T00:39:33.530Z,15.90
2019-04-14T00:40:33.013Z,16.00
2019-04-14T00:41:41.364Z,14.20
2019-04-14T00:42:34.181Z,15.40
2019-04-14T00:43:33.102Z,16.70
2019-04-14T00:44:32.318Z,16.10
2019-04-14T00:45:41.548Z,14.70
2019-04-14T00:46:34.285Z,15.40
2019-04-14T00:47:33.202Z,17.40
2019-04-14T00:48:32.271Z,18.10
2019-04-14T00:49:33.225Z,14.30
2019-04-14T00:50:32.250Z,13.80
2019-04-14T00:51:33.117Z,15.90
2019-04-14T00:52:32.269Z,15.00
2019-04-14T00:53:32.218Z,14.00
2019-04-14T00:54:32.527Z,13.60
2019-04-14T00:55:32.201Z,15.60
2019-04-14T00:56:32.331Z,15.20
2019-04-14T00:57:33.134Z,16.40
2019-04-14T00:58:32.258Z,16.50
2019-04-14T00:59:33.347Z,16.30
2019-04-14T01:00:32.146Z,15.80
2019-04-14T01:01:33.003Z,15.30
2019-04-14T01:02:32.122Z,15.90
2019-04-14T01:03:33.029Z,16.00
2019-04-14T01:04:32.101Z,17.20
2019-04-14T01:05:34.404Z,13.70
2019-04-14T01:06:34.620Z,15.50
2019-04-14T01:07:32.711Z,14.80
2019-04-14T01:08:32.058Z,15.10
2019-04-14T01:09:32.703Z,16.40
2019-04-14T01:10:32.220Z,17.60
2019-04-14T01:11:32.026Z,17.30
2019-04-14T01:12:32.130Z,16.40
2019-04-14T01:13:33.175Z,14.40
2019-04-14T01:14:32.090Z,16.80
2019-04-14T01:15:46.663Z,15.20
2019-04-14T01:16:34.008Z,18.00
2019-04-14T01:17:32.960Z,17.40
2019-04-14T01:18:32.032Z,17.90
2019-04-14T01:19:32.997Z,17.60
2019-04-14T01:20:31.930Z,16.50
2019-04-14T01:21:32.779Z,15.60
2019-04-14T01:22:31.913Z,18.00
2019-04-14T01:23:32.633Z,17.40
2019-04-14T01:24:31.887Z,16.30
2019-04-14T01:25:32.466Z,18.90
2019-04-14T01:26:33.136Z,20.20
2019-04-14T01:27:32.083Z,16.70
2019-04-14T01:28:32.886Z,16.80
2019-04-14T01:29:32.048Z,17.00
2019-04-14T01:30:32.718Z,16.50
2019-04-14T01:31:31.813Z,18.00
2019-04-14T01:32:32.637Z,17.70
2019-04-14T01:33:31.797Z,18.60
2019-04-14T01:34:32.439Z,17.50
2019-04-14T01:35:31.772Z,18.60
2019-04-14T01:36:32.059Z,20.70
2019-04-14T01:37:31.751Z,16.90
2019-04-14T01:38:31.982Z,20.50
2019-04-14T01:39:32.782Z,19.00
2019-04-14T01:40:31.722Z,17.50
2019-04-14T01:41:32.510Z,19.90
2019-04-14T01:42:31.697Z,16.30
2019-04-14T01:43:32.116Z,15.60
2019-04-14T01:44:31.675Z,18.90
2019-04-14T01:45:31.801Z,17.30
2019-04-14T01:46:34.055Z,18.50
2019-04-14T01:47:31.644Z,18.10
2019-04-14T01:48:32.449Z,16.70
2019-04-14T01:49:31.624Z,19.40
2019-04-14T01:50:32.307Z,17.50
2019-04-14T01:51:31.601Z,18.60
2019-04-14T01:52:32.033Z,17.20
2019-04-14T01:53:31.579Z,16.60
2019-04-14T01:54:32.334Z,19.50
2019-04-14T01:55:31.558Z,16.30
2019-04-14T01:56:31.988Z,17.90
2019-04-14T01:57:32.576Z,18.40
2019-04-14T01:58:31.803Z,16.70
2019-04-14T01:59:32.584Z,18.00
2019-04-14T02:00:31.661Z,17.10
2019-04-14T02:01:32.464Z,19.50
2019-04-14T02:02:31.544Z,21.60
2019-04-14T02:03:32.291Z,19.80
2019-04-14T02:04:31.465Z,18.60
2019-04-14T02:05:32.087Z,18.30
2019-04-14T02:06:31.442Z,17.50
2019-04-14T02:07:31.899Z,16.40
2019-04-14T02:08:31.422Z,18.10
2019-04-14T02:09:31.666Z,17.80
2019-04-14T02:10:32.589Z,19.20
2019-04-14T02:11:31.458Z,18.30
2019-04-14T02:12:32.342Z,17.40
2019-04-14T02:13:31.368Z,17.90
2019-04-14T02:14:32.240Z,15.80
2019-04-14T02:15:31.346Z,17.90
2019-04-14T02:16:39.700Z,18.60
2019-04-14T02:17:32.803Z,17.40
2019-04-14T02:18:31.890Z,19.00
2019-04-14T02:19:32.669Z,19.40
2019-04-14T02:20:31.892Z,17.00
2019-04-14T02:21:32.298Z,15.90
2019-04-14T02:22:31.330Z,16.00
2019-04-14T02:23:32.301Z,17.30
2019-04-14T02:24:31.267Z,16.30
2019-04-14T02:25:31.758Z,19.00
2019-04-14T02:26:31.233Z,17.30
2019-04-14T02:27:31.762Z,16.10
2019-04-14T02:28:31.207Z,18.00
2019-04-14T02:29:31.893Z,19.60
2019-04-14T02:30:39.178Z,16.40
2019-04-14T02:31:57.130Z,17.70
2019-04-14T02:32:56.951Z,16.00
2019-04-14T02:34:21.589Z,17.80
2019-04-14T02:35:00.192Z,18.90
2019-04-14T02:36:12.086Z,17.40
2019-04-14T02:38:05.606Z,17.10
2019-04-14T02:39:08.675Z,15.20
2019-04-14T02:41:04.223Z,17.60
2019-04-14T02:42:07.178Z,16.00
2019-04-14T02:42:54.300Z,15.60
2019-04-14T02:45:00.731Z,17.40
2019-04-14T02:46:10.769Z,16.50
2019-04-14T02:47:15.050Z,15.80
2019-04-14T02:48:03.856Z,18.50
2019-04-14T02:50:02.756Z,17.30
2019-04-14T02:50:55.802Z,16.90
2019-04-14T02:51:56.117Z,16.80
2019-04-14T02:53:01.764Z,15.30
2019-04-14T02:54:19.789Z,16.40
2019-04-14T02:55:01.529Z,16.10
2019-04-14T02:56:08.727Z,19.60
2019-04-14T02:57:01.992Z,15.60
2019-04-14T02:58:01.173Z,17.20
2019-04-14T02:58:58.323Z,15.40
2019-04-14T02:59:58.751Z,15.30
2019-04-14T03:02:56.442Z,16.30
2019-04-14T03:04:13.456Z,15.90
2019-04-14T03:04:59.978Z,15.70
2019-04-14T03:05:58.015Z,15.30
2019-04-14T03:06:56.365Z,14.50
2019-04-14T03:07:59.865Z,15.90
2019-04-14T03:09:53.760Z,16.20
2019-04-14T03:10:55.879Z,15.70
2019-04-14T03:12:02.973Z,14.00
2019-04-14T03:13:01.915Z,16.90
2019-04-14T03:14:01.258Z,17.00
2019-04-14T03:16:02.343Z,15.50
2019-04-14T03:18:16.369Z,14.40
2019-04-14T03:20:05.504Z,15.80
2019-04-14T03:20:59.204Z,15.90
2019-04-14T03:22:07.252Z,15.00
2019-04-14T03:24:01.251Z,16.40
2019-04-14T03:24:42.368Z,15.60
2019-04-14T03:25:49.062Z,15.90
2019-04-14T03:26:54.587Z,16.90
2019-04-14T03:28:12.676Z,15.00
2019-04-14T03:28:50.834Z,14.90
2019-04-14T03:29:59.727Z,15.30
2019-04-14T03:31:11.994Z,15.20
2019-04-14T03:35:12.076Z,15.20
2019-04-14T03:36:30.481Z,14.70
2019-04-14T03:37:59.375Z,16.50
2019-04-14T03:38:59.991Z,16.20
2019-04-14T03:40:01.179Z,18.20
2019-04-14T03:41:00.224Z,16.70
2019-04-14T03:42:02.513Z,16.50
2019-04-14T03:43:04.006Z,17.00
2019-04-14T03:43:54.614Z,15.50
2019-04-14T03:44:56.260Z,15.10
2019-04-14T03:46:04.755Z,16.30
2019-04-14T03:46:57.102Z,17.90
2019-04-14T03:48:17.075Z,15.30
2019-04-14T03:48:58.670Z,16.80
2019-04-14T03:50:00.006Z,16.80
2019-04-14T03:51:06.781Z,18.10
2019-04-14T03:52:55.873Z,16.20
2019-04-14T03:53:53.490Z,17.30
2019-04-14T03:54:52.652Z,19.10
2019-04-14T03:55:41.411Z,17.70
2019-04-14T03:56:31.361Z,17.10
2019-04-14T03:57:32.445Z,19.30
2019-04-14T03:58:31.384Z,17.80
2019-04-14T03:59:30.363Z,20.50
2019-04-14T04:00:31.313Z,17.80
2019-04-14T04:01:30.254Z,19.50
2019-04-14T04:02:31.457Z,20.00
2019-04-14T04:03:30.389Z,19.90
2019-04-14T04:04:31.308Z,17.80
2019-04-14T04:05:30.313Z,18.50
2019-04-14T04:06:31.261Z,17.60
2019-04-14T04:07:30.157Z,19.40
2019-04-14T04:08:31.183Z,20.40
2019-04-14T04:09:30.137Z,20.30
2019-04-14T04:10:31.398Z,19.30
2019-04-14T04:11:30.184Z,18.30
2019-04-14T04:12:31.324Z,21.50
2019-04-14T04:13:30.262Z,20.50
2019-04-14T04:14:31.247Z,19.70
2019-04-14T04:15:30.080Z,21.50
2019-04-14T04:16:31.138Z,18.70
2019-04-14T04:17:30.054Z,18.80
2019-04-14T04:18:30.910Z,21.30
2019-04-14T04:19:30.029Z,17.80
2019-04-14T04:20:30.631Z,19.70
2019-04-14T04:21:31.035Z,19.90
2019-04-14T04:22:30.379Z,22.00
2019-04-14T04:23:31.152Z,19.60
2019-04-14T04:24:31.830Z,18.70
2019-04-14T04:25:31.063Z,18.60
2019-04-14T04:26:30.094Z,18.10
2019-04-14T04:27:30.850Z,18.80
2019-04-14T04:28:29.949Z,20.60
2019-04-14T04:29:30.967Z,20.10
2019-04-14T04:30:29.913Z,18.20
2019-04-14T04:31:30.681Z,20.00
2019-04-14T04:32:29.894Z,18.50
2019-04-14T04:33:30.591Z,18.20
2019-04-14T04:34:29.870Z,20.80
2019-04-14T04:35:30.342Z,21.20
2019-04-14T04:36:29.849Z,18.90
2019-04-14T04:37:30.068Z,22.70
2019-04-14T04:38:29.827Z,20.00
2019-04-14T04:39:30.140Z,19.10
2019-04-14T04:40:31.109Z,19.40
2019-04-14T04:41:29.796Z,19.90
2019-04-14T04:42:30.791Z,18.50
2019-04-14T04:43:29.836Z,19.00
2019-04-14T04:44:29.765Z,19.80
2019-04-14T04:45:30.024Z,18.20
2019-04-14T04:46:30.859Z,20.10
2019-04-14T04:47:29.732Z,19.00
2019-04-14T04:48:30.720Z,20.40
2019-04-14T04:49:31.282Z,19.20
2019-04-14T04:50:30.349Z,20.60
2019-04-14T04:51:29.691Z,20.10
2019-04-14T04:52:30.098Z,19.70
2019-04-14T04:53:30.860Z,18.70
2019-04-14T04:54:30.092Z,20.50
2019-04-14T04:55:30.625Z,19.40
2019-04-14T04:56:29.800Z,19.10
2019-04-14T04:57:30.655Z,20.20
2019-04-14T04:58:30.519Z,17.70
2019-04-14T04:59:30.009Z,18.00
2019-04-14T05:00:30.717Z,18.90
2019-04-14T05:01:29.634Z,18.50
2019-04-14T05:02:30.633Z,16.80
2019-04-14T05:03:29.754Z,19.40
2019-04-14T05:04:30.738Z,19.20
2019-04-14T05:05:29.595Z,18.40
2019-04-14T05:06:30.834Z,18.80
2019-04-14T05:07:29.581Z,18.20
2019-04-14T05:08:30.450Z,19.20
2019-04-14T05:09:29.639Z,19.10
2019-04-14T05:10:30.639Z,18.80
2019-04-14T05:11:29.541Z,19.60
2019-04-14T05:12:30.619Z,20.60
2019-04-14T05:13:29.458Z,18.80
2019-04-14T05:14:30.487Z,20.00
2019-04-14T05:15:29.436Z,18.80
2019-04-14T05:16:30.243Z,18.30
2019-04-14T05:17:29.870Z,19.90
2019-04-14T05:18:29.410Z,17.10
2019-04-14T05:19:33.625Z,19.50
2019-04-14T05:20:31.376Z,20.40
2019-04-14T05:21:29.987Z,19.00
2019-04-14T05:22:29.365Z,18.00
2019-04-14T05:23:29.948Z,18.30
2019-04-14T05:24:29.340Z,18.90
2019-04-14T05:25:29.714Z,17.20
2019-04-14T05:26:29.322Z,19.30
2019-04-14T05:27:29.846Z,19.50
2019-04-14T05:28:29.316Z,18.10
2019-04-14T05:29:29.749Z,19.50
2019-04-14T05:30:29.278Z,19.00
2019-04-14T05:31:30.534Z,20.00
2019-04-14T05:32:30.421Z,18.30
2019-04-14T05:33:29.372Z,19.90
2019-04-14T05:34:30.398Z,19.90
2019-04-14T05:35:29.223Z,17.40
2019-04-14T05:36:30.242Z,17.80
2019-04-14T05:37:29.208Z,18.70
2019-04-14T05:38:32.101Z,17.80
2019-04-14T05:39:29.182Z,16.80
2019-04-14T05:40:30.001Z,17.20
2019-04-14T05:41:29.161Z,17.30
2019-04-14T05:42:30.146Z,16.60
2019-04-14T05:43:38.654Z,16.00
2019-04-14T05:44:30.126Z,17.60
2019-04-14T05:45:29.117Z,17.10
2019-04-14T05:46:29.627Z,19.20
2019-04-14T05:47:30.433Z,16.40
2019-04-14T05:48:29.362Z,17.60
2019-04-14T05:49:38.224Z,17.00
2019-04-14T05:50:31.260Z,16.50
2019-04-14T05:51:29.056Z,15.90
2019-04-14T05:52:29.593Z,17.80
2019-04-14T05:53:29.033Z,15.70
2019-04-14T05:54:29.640Z,17.30
2019-04-14T05:55:29.012Z,15.30
2019-04-14T05:56:29.616Z,16.40
2019-04-14T05:57:28.991Z,15.60
2019-04-14T05:58:29.725Z,15.80
2019-04-14T05:59:28.969Z,14.60
2019-04-14T06:00:29.984Z,14.80
2019-04-14T06:01:29.234Z,15.70
2019-04-14T06:02:30.496Z,14.60
2019-04-14T06:03:29.935Z,15.70
2019-04-14T06:04:28.921Z,15.10
2019-04-14T06:05:29.628Z,15.10
2019-04-14T06:06:28.897Z,16.40
2019-04-14T06:07:28.886Z,14.50
2019-04-14T06:08:28.875Z,15.80
2019-04-14T06:09:28.864Z,14.30
2019-04-14T06:10:28.852Z,14.80
2019-04-14T06:11:28.844Z,13.10
2019-04-14T06:12:28.834Z,13.70
2019-04-14T06:13:28.821Z,13.20
2019-04-14T06:14:28.811Z,14.80
2019-04-14T06:15:28.799Z,15.90
2019-04-14T06:16:28.789Z,14.40
2019-04-14T06:17:28.777Z,15.60
2019-04-14T06:18:28.767Z,13.40
2019-04-14T06:19:36.992Z,13.40
2019-04-14T06:20:29.745Z,13.10
2019-04-14T06:21:28.735Z,13.50
2019-04-14T06:22:28.725Z,14.00
2019-04-14T06:23:28.717Z,13.90
2019-04-14T06:24:28.703Z,11.60
2019-04-14T06:25:28.694Z,12.90
2019-04-14T06:26:28.736Z,11.10
2019-04-14T06:27:28.672Z,11.70
2019-04-14T06:28:28.661Z,12.50
2019-04-14T06:29:28.651Z,12.80
2019-04-14T06:30:28.640Z,12.40
2019-04-14T06:31:28.630Z,12.30
2019-04-14T06:32:28.618Z,11.90
2019-04-14T06:33:28.608Z,11.30
2019-04-14T06:34:28.601Z,13.10
2019-04-14T06:35:28.586Z,11.10
2019-04-14T06:36:28.576Z,11.80
2019-04-14T06:37:28.565Z,14.10
2019-04-14T06:38:28.564Z,12.20
2019-04-14T06:39:28.544Z,11.50
2019-04-14T06:40:28.533Z,12.50
2019-04-14T06:41:28.524Z,11.50
2019-04-14T06:42:28.514Z,12.30
2019-04-14T06:43:28.501Z,11.70
2019-04-14T06:44:28.491Z,12.70
2019-04-14T06:45:28.481Z,11.60
2019-04-14T06:46:28.472Z,11.80
2019-04-14T06:47:28.458Z,13.70
2019-04-14T06:48:28.449Z,12.60
2019-04-14T06:49:28.440Z,13.40
2019-04-14T06:50:28.429Z,13.20
2019-04-14T06:51:28.418Z,13.70
2019-04-14T06:52:28.409Z,12.40
2019-04-14T06:53:28.395Z,12.00
2019-04-14T06:54:28.385Z,12.30
2019-04-14T06:55:28.374Z,12.20
2019-04-14T06:56:28.364Z,14.00
2019-04-14T06:57:28.353Z,13.30
2019-04-14T06:58:28.343Z,13.80
2019-04-14T06:59:28.332Z,11.70
2019-04-14T07:00:28.321Z,12.30
2019-04-14T07:01:28.311Z,12.40
2019-04-14T07:02:28.300Z,12.90
2019-04-14T07:03:28.289Z,13.60
2019-04-14T07:04:28.279Z,13.80
2019-04-14T07:05:28.268Z,13.50
2019-04-14T07:06:28.259Z,15.10
2019-04-14T07:07:28.247Z,12.50
2019-04-14T07:08:29.934Z,12.20
2019-04-14T07:09:28.225Z,12.30
2019-04-14T07:10:28.214Z,12.80
2019-04-14T07:11:28.205Z,11.60
2019-04-14T07:12:28.193Z,12.00
2019-04-14T07:13:28.183Z,13.30
2019-04-14T07:14:31.669Z,12.30
2019-04-14T07:15:28.161Z,13.10
2019-04-14T07:16:28.151Z,14.60
2019-04-14T07:17:28.140Z,13.90
2019-04-14T07:18:28.129Z,13.20
2019-04-14T07:19:28.119Z,13.60
2019-04-14T07:20:28.110Z,15.80
2019-04-14T07:21:28.101Z,15.20
2019-04-14T07:22:28.094Z,13.60
2019-04-14T07:23:28.076Z,14.00
2019-04-14T07:24:28.066Z,13.80
2019-04-14T07:25:28.058Z,14.50
2019-04-14T07:26:28.047Z,13.40
2019-04-14T07:27:28.034Z,13.70
2019-04-14T07:28:28.024Z,14.20
2019-04-14T07:29:28.013Z,14.20
2019-04-14T07:30:28.005Z,14.60
2019-04-14T07:31:27.992Z,14.30
2019-04-14T07:32:27.982Z,13.70
2019-04-14T07:33:27.971Z,14.10
2019-04-14T07:34:27.960Z,13.50
2019-04-14T07:35:27.950Z,14.60
2019-04-14T07:36:27.937Z,15.60
2019-04-14T07:37:27.928Z,14.30
2019-04-14T07:38:27.920Z,15.40
2019-04-14T07:39:27.909Z,14.00
2019-04-14T07:40:27.903Z,13.40
2019-04-14T07:41:27.885Z,14.70
2019-04-14T07:42:27.874Z,15.20
2019-04-14T07:43:27.865Z,15.60
2019-04-14T07:44:27.853Z,15.00
2019-04-14T07:45:27.842Z,14.70
2019-04-14T07:46:27.831Z,14.10
2019-04-14T07:47:27.821Z,15.70
2019-04-14T07:48:27.811Z,16.00
2019-04-14T07:49:27.800Z,15.10
2019-04-14T07:50:27.788Z,15.70
2019-04-14T07:51:27.778Z,14.30
2019-04-14T07:52:27.768Z,15.40
2019-04-14T07:53:27.757Z,15.60
2019-04-14T07:54:27.747Z,14.00
2019-04-14T07:55:27.742Z,14.10
2019-04-14T07:56:27.729Z,14.00
2019-04-14T07:57:27.714Z,15.40
2019-04-14T07:58:27.705Z,16.90
2019-04-14T07:59:27.693Z,15.20
2019-04-14T08:00:27.683Z,15.20
2019-04-14T08:01:27.672Z,15.60
2019-04-14T08:02:27.668Z,15.10
2019-04-14T08:03:27.651Z,17.70
2019-04-14T08:04:27.644Z,15.70
2019-04-14T08:05:27.628Z,15.80
2019-04-14T08:06:27.619Z,15.70
2019-04-14T08:07:27.609Z,16.20
2019-04-14T08:08:27.599Z,16.60
2019-04-14T08:09:27.589Z,15.60
2019-04-14T08:10:27.577Z,14.70
2019-04-14T08:11:27.565Z,16.50
2019-04-14T08:12:27.555Z,15.70
2019-04-14T08:13:27.544Z,16.70
2019-04-14T08:14:27.534Z,18.10
2019-04-14T08:15:27.523Z,16.80
2019-04-14T08:16:27.512Z,17.50
2019-04-14T08:17:27.502Z,18.20
2019-04-14T08:18:27.493Z,18.30
2019-04-14T08:19:27.481Z,17.30
2019-04-14T08:20:28.112Z,15.60
2019-04-14T08:21:27.459Z,15.80
2019-04-14T08:22:27.449Z,16.50
2019-04-14T08:23:27.438Z,16.70
2019-04-14T08:24:27.429Z,16.60
2019-04-14T08:25:27.417Z,15.10
2019-04-14T08:26:27.406Z,16.20
2019-04-14T08:27:27.397Z,15.40
2019-04-14T08:28:27.389Z,17.50
2019-04-14T08:29:27.374Z,18.10
2019-04-14T08:30:27.364Z,16.10
2019-04-14T08:31:27.353Z,17.90
2019-04-14T08:32:27.344Z,15.00
2019-04-14T08:33:27.331Z,17.60
2019-04-14T08:34:27.323Z,18.10
2019-04-14T08:35:27.310Z,15.70
2019-04-14T08:36:27.304Z,15.50
2019-04-14T08:37:27.288Z,17.00
2019-04-14T08:38:27.277Z,15.30
2019-04-14T08:39:27.269Z,17.00
2019-04-14T08:40:27.256Z,17.20
2019-04-14T08:41:27.252Z,17.20
2019-04-14T08:42:27.235Z,16.70
2019-04-14T08:43:27.226Z,16.40
2019-04-14T08:44:27.213Z,17.00
2019-04-14T08:45:27.202Z,15.90
2019-04-14T08:46:27.192Z,14.10
2019-04-14T08:47:27.181Z,14.30
2019-04-14T08:48:27.173Z,15.50
2019-04-14T08:49:27.161Z,15.10
2019-04-14T08:50:38.694Z,16.80
2019-04-14T08:51:28.141Z,16.90
2019-04-14T08:52:27.144Z,16.10
2019-04-14T08:53:27.118Z,15.90
2019-04-14T08:54:27.107Z,16.60
2019-04-14T08:55:27.098Z,17.30
2019-04-14T08:56:27.086Z,19.00
2019-04-14T08:57:27.074Z,16.90
2019-04-14T08:58:27.073Z,16.60
2019-04-14T08:59:27.054Z,17.10
2019-04-14T09:00:27.042Z,17.70
2019-04-14T09:01:27.031Z,17.80
2019-04-14T09:02:27.023Z,16.70
2019-04-14T09:03:27.066Z,16.80
2019-04-14T09:04:27.001Z,17.00
2019-04-14T09:05:26.991Z,14.90
2019-04-14T09:06:26.979Z,16.40
2019-04-14T09:07:26.967Z,16.40
2019-04-14T09:08:26.957Z,15.30
2019-04-14T09:09:26.949Z,17.50
2019-04-14T09:10:26.938Z,17.70
2019-04-14T09:11:26.927Z,18.30
2019-04-14T09:12:26.914Z,17.40
2019-04-14T09:13:26.906Z,16.50
2019-04-14T09:14:26.892Z,17.30
2019-04-14T09:15:26.883Z,15.80
2019-04-14T09:16:26.872Z,16.60
2019-04-14T09:17:26.863Z,16.30
2019-04-14T09:18:26.852Z,16.80
2019-04-14T09:19:26.840Z,18.60
2019-04-14T09:20:26.829Z,18.60
2019-04-14T09:21:26.819Z,16.60
2019-04-14T09:22:26.808Z,17.00
2019-04-14T09:23:26.797Z,16.10
2019-04-14T09:24:26.785Z,16.20
2019-04-14T09:25:26.775Z,17.60
2019-04-14T09:26:26.767Z,16.90
2019-04-14T09:27:26.768Z,15.00
2019-04-14T09:28:26.743Z,16.00
2019-04-14T09:29:26.737Z,17.10
2019-04-14T09:30:26.723Z,16.30
2019-04-14T09:31:26.712Z,14.10
2019-04-14T09:32:26.703Z,18.20
2019-04-14T09:33:26.691Z,18.30
2019-04-14T09:34:26.683Z,15.80
2019-04-14T09:35:26.674Z,16.90
2019-04-14T09:36:26.659Z,16.50
2019-04-14T09:37:26.653Z,18.70
2019-04-14T09:38:26.636Z,15.40
2019-04-14T09:39:26.627Z,16.20
2019-04-14T09:40:26.614Z,15.40
2019-04-14T09:41:26.603Z,16.80
2019-04-14T09:42:26.594Z,15.50
2019-04-14T09:43:26.583Z,14.80
2019-04-14T09:44:26.573Z,16.90
2019-04-14T09:45:26.564Z,15.60
2019-04-14T09:46:26.551Z,17.10
2019-04-14T09:47:26.540Z,15.30
2019-04-14T09:48:26.530Z,15.60
2019-04-14T09:49:26.520Z,16.00
2019-04-14T09:50:26.509Z,15.40
2019-04-14T09:51:26.500Z,17.30
2019-04-14T09:52:26.487Z,17.30
2019-04-14T09:53:26.475Z,18.10
2019-04-14T09:54:26.465Z,17.00
2019-04-14T09:55:26.456Z,17.80
2019-04-14T09:56:26.445Z,16.60
2019-04-14T09:57:26.437Z,18.90
2019-04-14T09:58:26.425Z,17.00
2019-04-14T09:59:26.412Z,16.80
2019-04-14T10:00:26.405Z,17.60
2019-04-14T10:01:26.391Z,20.70
2019-04-14T10:02:26.380Z,18.10
2019-04-14T10:03:26.369Z,16.00
2019-04-14T10:04:26.361Z,17.90
2019-04-14T10:05:26.352Z,16.10
2019-04-14T10:06:26.348Z,17.90
2019-04-14T10:07:26.327Z,18.60
2019-04-14T10:08:26.318Z,17.60
2019-04-14T10:09:26.307Z,16.90
2019-04-14T10:10:26.298Z,16.80
2019-04-14T10:11:26.285Z,17.10
2019-04-14T10:12:26.274Z,19.00
2019-04-14T10:13:26.267Z,15.70
2019-04-14T10:14:26.255Z,18.20
2019-04-14T10:15:26.241Z,17.20
2019-04-14T10:16:26.232Z,17.60
2019-04-14T10:17:26.220Z,17.80
2019-04-14T10:18:26.210Z,18.00
2019-04-14T10:19:26.207Z,18.40
2019-04-14T10:20:26.188Z,16.00
2019-04-14T10:21:26.177Z,16.60
2019-04-14T10:22:33.882Z,18.40
2019-04-14T10:23:27.155Z,16.00
2019-04-14T10:24:26.146Z,15.20
2019-04-14T10:25:26.137Z,17.50
2019-04-14T10:26:26.124Z,16.90
2019-04-14T10:27:26.113Z,17.70
2019-04-14T10:28:26.102Z,18.00
2019-04-14T10:29:26.091Z,18.30
2019-04-14T10:30:26.083Z,17.30
2019-04-14T10:31:26.070Z,17.30
2019-04-14T10:32:26.059Z,15.70
2019-04-14T10:33:26.049Z,16.00
2019-04-14T10:34:26.040Z,16.00
2019-04-14T10:35:26.029Z,16.30
2019-04-14T10:36:26.025Z,18.20
2019-04-14T10:37:26.006Z,17.00
2019-04-14T10:38:25.996Z,14.60
2019-04-14T10:39:25.987Z,18.40
2019-04-14T10:40:25.977Z,18.30
2019-04-14T10:41:25.966Z,17.10
2019-04-14T10:42:25.957Z,16.90
2019-04-14T10:43:25.942Z,17.80
2019-04-14T10:44:25.934Z,16.50
2019-04-14T10:45:25.924Z,17.90
2019-04-14T10:46:25.910Z,16.20
2019-04-14T10:47:25.900Z,18.70
2019-04-14T10:48:25.916Z,17.70
2019-04-14T10:49:25.879Z,18.80
2019-04-14T10:50:30.999Z,16.70
2019-04-14T10:51:30.267Z,18.30
2019-04-14T10:52:26.846Z,17.20
2019-04-14T10:53:25.839Z,20.10
2019-04-14T10:54:25.882Z,17.50
2019-04-14T10:55:25.816Z,21.20
2019-04-14T10:56:25.805Z,18.50
2019-04-14T10:57:25.794Z,18.40
2019-04-14T10:58:25.784Z,18.20
2019-04-14T10:59:25.773Z,15.30
2019-04-14T11:00:25.762Z,17.80
2019-04-14T11:01:25.753Z,17.10
2019-04-14T11:02:25.739Z,16.10
2019-04-14T11:03:25.730Z,18.30
2019-04-14T11:04:25.718Z,16.20
2019-04-14T11:05:25.712Z,18.20
2019-04-14T11:06:25.702Z,17.30
2019-04-14T11:07:25.709Z,17.90
2019-04-14T11:08:25.678Z,15.70
2019-04-14T11:09:25.665Z,16.90
2019-04-14T11:10:25.655Z,15.00
2019-04-14T11:11:25.645Z,16.60
2019-04-14T11:12:25.635Z,16.90
2019-04-14T11:13:25.621Z,19.70
2019-04-14T11:14:25.611Z,16.20
2019-04-14T11:15:25.601Z,19.40
2019-04-14T11:16:25.594Z,17.10
2019-04-14T11:17:25.581Z,16.80
2019-04-14T11:18:25.568Z,15.70
2019-04-14T11:19:25.593Z,14.90
2019-04-14T11:20:25.549Z,15.50
2019-04-14T11:21:25.537Z,16.80
2019-04-14T11:22:25.532Z,16.00
2019-04-14T11:23:25.516Z,16.20
2019-04-14T11:24:25.508Z,17.60
2019-04-14T11:25:25.502Z,17.20
2019-04-14T11:26:25.484Z,18.00
2019-04-14T11:27:25.475Z,16.90
2019-04-14T11:28:25.463Z,16.50
2019-04-14T11:29:25.452Z,17.90
2019-04-14T11:30:25.443Z,17.30
2019-04-14T11:31:25.429Z,16.30
2019-04-14T11:32:25.419Z,15.70
2019-04-14T11:33:25.408Z,17.50
2019-04-14T11:34:25.398Z,17.10
2019-04-14T11:35:25.402Z,15.60
2019-04-14T11:36:25.383Z,15.70
2019-04-14T11:37:25.369Z,16.00
2019-04-14T11:38:25.358Z,17.70
2019-04-14T11:39:25.344Z,16.90
2019-04-14T11:40:25.333Z,14.50
2019-04-14T11:41:25.326Z,14.80
2019-04-14T11:42:25.326Z,15.80
2019-04-14T11:43:25.301Z,15.30
2019-04-14T11:44:25.290Z,16.90
2019-04-14T11:45:25.280Z,15.20
2019-04-14T11:46:25.270Z,16.70
2019-04-14T11:47:25.257Z,15.40
2019-04-14T11:48:25.251Z,15.30
2019-04-14T11:49:25.246Z,16.40
2019-04-14T11:50:25.225Z,16.10
2019-04-14T11:51:25.221Z,17.60
2019-04-14T11:52:25.204Z,14.00
2019-04-14T11:53:25.192Z,15.30
2019-04-14T11:54:25.183Z,17.00
2019-04-14T11:55:25.172Z,15.10
2019-04-14T11:56:25.214Z,14.80
2019-04-14T11:57:25.149Z,14.90
2019-04-14T11:58:25.142Z,14.00
2019-04-14T11:59:25.130Z,16.90
2019-04-14T12:00:25.121Z,15.70
2019-04-14T12:01:25.114Z,15.90
2019-04-14T12:02:25.101Z,14.40
2019-04-14T12:03:25.085Z,15.00
2019-04-14T12:04:25.087Z,15.70
2019-04-14T12:05:25.074Z,15.20
2019-04-14T12:06:25.062Z,15.50
2019-04-14T12:07:25.046Z,14.70
2019-04-14T12:08:25.031Z,14.20
2019-04-14T12:09:25.022Z,13.70
2019-04-14T12:10:25.010Z,13.50
2019-04-14T12:11:24.999Z,12.80
2019-04-14T12:12:24.989Z,13.40
2019-04-14T12:13:24.977Z,15.20
2019-04-14T12:14:24.970Z,13.80
2019-04-14T12:15:24.955Z,14.20
2019-04-14T12:16:24.946Z,14.50
2019-04-14T12:17:24.935Z,15.60
2019-04-14T12:18:24.935Z,14.10
2019-04-14T12:19:24.917Z,14.70
2019-04-14T12:20:24.905Z,15.40
2019-04-14T12:21:24.922Z,15.00
2019-04-14T12:22:24.880Z,14.60
2019-04-14T12:23:24.871Z,14.60
2019-04-14T12:24:24.859Z,15.40
2019-04-14T12:25:24.850Z,14.20
2019-04-14T12:26:24.838Z,14.90
2019-04-14T12:27:24.826Z,14.90
2019-04-14T12:28:24.817Z,14.00
2019-04-14T12:29:26.029Z,13.90
2019-04-14T12:30:24.793Z,15.60
2019-04-14T12:31:24.788Z,13.10
2019-04-14T12:32:24.774Z,14.40
2019-04-14T12:33:24.763Z,15.30
2019-04-14T12:34:24.752Z,13.50
2019-04-14T12:35:24.740Z,13.50
2019-04-14T12:36:24.730Z,13.60
2019-04-14T12:37:24.719Z,13.30
2019-04-14T12:38:24.709Z,13.60
2019-04-14T12:39:24.698Z,16.10
2019-04-14T12:40:24.688Z,15.20
2019-04-14T12:41:24.683Z,15.30
2019-04-14T12:42:24.665Z,13.30
2019-04-14T12:43:24.655Z,14.30
2019-04-14T12:44:24.644Z,14.30
2019-04-14T12:45:24.633Z,12.60
2019-04-14T12:46:24.622Z,13.40
2019-04-14T12:47:24.614Z,14.90
2019-04-14T12:48:24.600Z,13.50
2019-04-14T12:49:24.591Z,14.40
2019-04-14T12:50:24.579Z,13.80
2019-04-14T12:51:24.573Z,13.10
2019-04-14T12:52:24.558Z,14.90
2019-04-14T12:53:24.547Z,13.60
2019-04-14T12:54:24.536Z,16.00
2019-04-14T12:55:24.525Z,13.90
2019-04-14T12:56:24.515Z,14.20
2019-04-14T12:57:24.503Z,14.20
2019-04-14T12:58:24.493Z,13.80
2019-04-14T12:59:24.483Z,13.90
2019-04-14T13:00:24.474Z,13.60
2019-04-14T13:01:24.460Z,12.80
2019-04-14T13:02:24.449Z,13.70
2019-04-14T13:03:24.442Z,15.50
2019-04-14T13:04:24.428Z,13.40
2019-04-14T13:05:24.419Z,12.60
2019-04-14T13:06:24.407Z,13.70
2019-04-14T13:07:24.399Z,14.00
2019-04-14T13:08:24.389Z,14.20